Time;durP1;ratioP1;P1;durP2;ratioP2;P2;SDS_P1;SDS_P2;PMS_P1;PMS_P2;Temp;Humidity;BMP_temperature;BMP_pressure;BME280_temperature;BME280_humidity;BME280_pressure;Samples;Min_cycle;Max_cycle;Signal;HPM_P1;HPM_P2
2022/08/17 00:01:32;;;;;;;;;;;21.60;97.10;;;;;;5049571;28;19987;-82
2022/08/17 00:03:59;;;;;;;;;;;22.00;96.90;;;;;;5047566;28;19986;-82
2022/08/17 00:06:27;;;;;;;;;;;21.90;97.50;;;;;;5044645;28;19932;-82
2022/08/17 00:08:55;;;;;;;;;;;21.90;97.60;;;;;;5045947;28;20625;-82
2022/08/17 00:11:24;;;;;;;;;;;21.90;97.70;;;;;;5045645;28;20334;-82
2022/08/17 00:13:52;;;;;;;;;;;21.90;97.20;;;;;;5059348;28;19986;-82
2022/08/17 00:16:23;;;;;;;;;;;21.90;97.90;;;;;;5043594;28;19929;-82
2022/08/17 00:18:50;;;;;;;;;;;21.90;98.00;;;;;;5045630;28;20566;-82
2022/08/17 00:21:18;;;;;;;;;;;21.90;98.10;;;;;;5045545;28;19929;-83
2022/08/17 00:23:46;;;;;;;;;;;21.80;97.50;;;;;;5046361;28;19979;-82
2022/08/17 00:26:13;;;;;;;;;;;21.80;98.20;;;;;;5045579;28;19936;-82
2022/08/17 00:28:39;;;;;;;;;;;21.80;98.40;;;;;;5044046;28;19925;-82
2022/08/17 00:31:07;;;;;;;;;;;21.80;98.50;;;;;;5042574;28;19929;-82
2022/08/17 00:33:36;;;;;;;;;;;21.70;98.50;;;;;;5046027;28;19958;-82
2022/08/17 00:36:04;;;;;;;;;;;21.70;98.60;;;;;;5056031;28;19925;-82
2022/08/17 00:38:31;;;;;;;;;;;21.60;98.70;;;;;;5039296;28;19928;-81
2022/08/17 00:40:59;;;;;;;;;;;21.60;98.80;;;;;;5037355;28;20626;-82
2022/08/17 00:43:28;;;;;;;;;;;21.50;98.90;;;;;;5039892;28;19925;-81
2022/08/17 00:45:55;;;;;;;;;;;21.50;99.20;;;;;;5041810;28;19921;-81
2022/08/17 00:48:22;;;;;;;;;;;21.40;99.20;;;;;;5042563;28;19936;-82
2022/08/17 00:50:53;;;;;;;;;;;21.40;99.40;;;;;;5037207;28;19929;-82
2022/08/17 00:53:21;;;;;;;;;;;21.30;99.50;;;;;;5041026;28;19951;-81
2022/08/17 00:55:47;;;;;;;;;;;21.20;99.60;;;;;;5038295;28;19932;-81
2022/08/17 00:58:14;;;;;;;;;;;21.20;99.70;;;;;;5035571;28;20496;-81
2022/08/17 01:00:42;;;;;;;;;;;21.20;99.90;;;;;;5036503;28;20691;-81
2022/08/17 01:03:11;;;;;;;;;;;21.20;99.90;;;;;;5035123;28;19948;-81
2022/08/17 01:05:38;;;;;;;;;;;21.10;99.90;;;;;;5037780;28;19929;-82
2022/08/17 01:08:07;;;;;;;;;;;21.00;99.90;;;;;;5036544;28;19921;-82
2022/08/17 01:10:37;;;;;;;;;;;21.00;99.90;;;;;;5035685;28;20298;-82
2022/08/17 01:13:04;;;;;;;;;;;20.80;99.90;;;;;;5034520;28;20032;-82
2022/08/17 01:15:32;;;;;;;;;;;20.90;99.90;;;;;;5034079;28;19928;-82
2022/08/17 01:18:33;;;;;;;;;;;20.70;99.90;;;;;;5034029;28;19924;-82
2022/08/17 01:21:06;;;;;;;;;;;20.80;99.90;;;;;;5032343;28;20021;-83
2022/08/17 01:23:34;;;;;;;;;;;20.80;99.90;;;;;;5035063;28;20010;-82
2022/08/17 01:26:01;;;;;;;;;;;20.70;99.90;;;;;;5033802;28;20026;-82
2022/08/17 01:28:30;;;;;;;;;;;20.70;99.90;;;;;;5032121;28;19952;-82
2022/08/17 01:30:57;;;;;;;;;;;20.60;99.90;;;;;;5034078;28;19932;-81
2022/08/17 01:33:24;;;;;;;;;;;20.60;99.90;;;;;;5037077;28;19924;-82
2022/08/17 01:35:50;;;;;;;;;;;20.50;99.90;;;;;;5042249;28;19924;-81
2022/08/17 01:38:18;;;;;;;;;;;20.50;99.90;;;;;;5053433;28;19924;-81
2022/08/17 01:40:49;;;;;;;;;;;21.70;99.90;;;;;;5037308;28;19925;-82
2022/08/17 01:43:20;;;;;;;;;;;20.60;99.90;;;;;;5032731;28;19964;-82
2022/08/17 01:45:48;;;;;;;;;;;20.60;99.90;;;;;;5044007;28;19997;-82
2022/08/17 01:48:14;;;;;;;;;;;20.60;99.90;;;;;;5049641;28;19971;-82
2022/08/17 01:50:43;;;;;;;;;;;20.50;99.90;;;;;;5049493;28;19983;-82
2022/08/17 01:53:20;;;;;;;;;;;20.40;99.90;;;;;;5066507;28;19908;-82
2022/08/17 01:55:50;;;;;;;;;;;20.40;99.90;;;;;;5069799;28;20488;-80
2022/08/17 01:58:17;;;;;;;;;;;20.40;99.90;;;;;;5066060;28;19931;-79
2022/08/17 02:00:44;;;;;;;;;;;20.40;99.90;;;;;;5073986;28;19924;-80
2022/08/17 02:03:11;;;;;;;;;;;20.30;99.90;;;;;;5073237;28;19947;-80
2022/08/17 02:05:38;;;;;;;;;;;18.90;99.90;;;;;;5053845;28;19920;-82
2022/08/17 02:08:06;;;;;;;;;;;20.30;99.90;;;;;;5070127;28;19924;-81
2022/08/17 02:10:39;;;;;;;;;;;20.30;99.90;;;;;;5061959;28;19925;-83
2022/08/17 02:13:08;;;;;;;;;;;20.20;99.90;;;;;;5055843;28;19978;-82
2022/08/17 02:15:38;;;;;;;;;;;20.20;99.90;;;;;;5046273;28;19939;-83
2022/08/17 02:18:05;;;;;;;;;;;20.20;99.90;;;;;;5054269;28;19924;-82
2022/08/17 02:20:32;;;;;;;;;;;20.20;99.90;;;;;;5035134;28;19921;-83
2022/08/17 02:22:59;;;;;;;;;;;20.20;99.90;;;;;;5040119;28;19931;-82
2022/08/17 02:25:26;;;;;;;;;;;20.10;99.90;;;;;;5054589;28;19920;-82
2022/08/17 02:27:53;;;;;;;;;;;20.20;99.90;;;;;;5046775;28;19921;-83
2022/08/17 02:30:20;;;;;;;;;;;20.10;99.90;;;;;;5034737;28;19932;-83
2022/08/17 02:32:48;;;;;;;;;;;19.90;99.90;;;;;;5051576;28;19947;-82
2022/08/17 02:35:15;;;;;;;;;;;19.90;99.90;;;;;;5051164;28;20011;-82
2022/08/17 02:37:42;;;;;;;;;;;19.90;99.90;;;;;;5050431;28;19947;-82
2022/08/17 02:40:09;;;;;;;;;;;19.80;99.90;;;;;;5054064;28;19946;-83
2022/08/17 02:42:37;;;;;;;;;;;19.80;99.90;;;;;;5053330;28;19921;-82
2022/08/17 02:45:06;;;;;;;;;;;19.70;99.90;;;;;;5046213;28;19966;-82
2022/08/17 02:47:33;;;;;;;;;;;19.60;99.90;;;;;;5051187;28;19921;-82
2022/08/17 02:50:01;;;;;;;;;;;19.60;99.90;;;;;;5053555;28;19931;-82
2022/08/17 02:52:32;;;;;;;;;;;19.50;99.90;;;;;;5053364;28;20417;-82
2022/08/17 02:54:59;;;;;;;;;;;19.50;99.90;;;;;;5054077;28;19928;-82
2022/08/17 02:57:25;;;;;;;;;;;19.50;99.90;;;;;;5050566;28;19925;-82
2022/08/17 02:59:53;;;;;;;;;;;19.40;99.90;;;;;;5055243;28;19951;-82
2022/08/17 03:02:20;;;;;;;;;;;19.40;99.90;;;;;;5051254;28;19925;-82
2022/08/17 03:04:46;;;;;;;;;;;20.30;99.90;;;;;;5049525;28;20028;-82
2022/08/17 03:07:15;;;;;;;;;;;19.30;99.90;;;;;;5040521;28;19998;-82
2022/08/17 03:09:41;;;;;;;;;;;19.30;99.90;;;;;;5031206;28;19944;-83
2022/08/17 03:12:11;;;;;;;;;;;19.30;99.90;;;;;;5039735;28;19928;-82
2022/08/17 03:14:37;;;;;;;;;;;19.30;99.90;;;;;;5050686;28;20278;-82
2022/08/17 03:17:04;;;;;;;;;;;19.20;99.90;;;;;;5053824;28;20050;-82
2022/08/17 03:19:31;;;;;;;;;;;19.20;99.90;;;;;;5041612;28;19925;-82
2022/08/17 03:21:58;;;;;;;;;;;19.10;99.90;;;;;;5049233;28;19962;-83
2022/08/17 03:24:26;;;;;;;;;;;19.20;99.90;;;;;;5034726;28;19924;-81
2022/08/17 03:26:53;;;;;;;;;;;19.20;99.90;;;;;;5049522;28;20352;-82
2022/08/17 03:29:19;;;;;;;;;;;19.10;99.90;;;;;;5052214;28;19944;-81
2022/08/17 03:31:46;;;;;;;;;;;19.20;99.90;;;;;;5042545;28;19931;-83
2022/08/17 03:34:13;;;;;;;;;;;19.10;99.90;;;;;;5039469;28;20438;-83
2022/08/17 03:36:39;;;;;;;;;;;19.10;99.90;;;;;;5049505;28;19921;-83
2022/08/17 03:39:06;;;;;;;;;;;19.10;99.90;;;;;;5052585;28;19925;-82
2022/08/17 03:41:34;;;;;;;;;;;19.10;99.90;;;;;;5047889;28;20290;-82
2022/08/17 03:44:01;;;;;;;;;;;19.00;99.90;;;;;;5043369;28;19939;-83
2022/08/17 03:57:27;;;;;;;;;;;18.90;99.90;;;;;;5051453;28;19967;-84
2022/08/17 03:59:55;;;;;;;;;;;19.00;99.90;;;;;;5052055;28;19958;-84
2022/08/17 04:02:28;;;;;;;;;;;19.00;99.90;;;;;;5049684;28;20317;-84
2022/08/17 04:04:54;;;;;;;;;;;18.90;99.90;;;;;;5048749;28;19924;-82
2022/08/17 04:07:22;;;;;;;;;;;18.90;99.90;;;;;;5051805;28;20303;-82
2022/08/17 04:09:49;;;;;;;;;;;19.20;99.90;;;;;;5053244;28;19924;-82
2022/08/17 04:12:17;;;;;;;;;;;18.90;99.90;;;;;;5046120;28;19924;-83
2022/08/17 04:14:45;;;;;;;;;;;18.80;99.90;;;;;;5038726;28;19955;-82
2022/08/17 04:17:12;;;;;;;;;;;18.80;99.90;;;;;;5043130;28;19982;-81
2022/08/17 04:19:39;;;;;;;;;;;18.70;99.90;;;;;;5054604;28;19920;-82
2022/08/17 04:22:06;;;;;;;;;;;18.80;99.90;;;;;;5050942;28;19924;-83
2022/08/17 04:24:33;;;;;;;;;;;18.70;99.90;;;;;;5055920;28;19986;-83
2022/08/17 04:27:01;;;;;;;;;;;18.90;99.90;;;;;;5049475;28;19929;-83
2022/08/17 04:29:27;;;;;;;;;;;18.20;99.90;;;;;;5048889;28;20708;-83
2022/08/17 04:31:56;;;;;;;;;;;18.70;99.90;;;;;;5047673;28;19924;-83
2022/08/17 04:34:23;;;;;;;;;;;18.70;99.90;;;;;;5046177;28;20002;-82
2022/08/17 04:36:51;;;;;;;;;;;18.80;99.90;;;;;;5052733;28;19932;-83
2022/08/17 04:39:18;;;;;;;;;;;18.80;99.90;;;;;;5039552;28;20476;-82
2022/08/17 04:44:29;;;;;;;;;;;18.80;99.90;;;;;;5045703;28;19924;-82
2022/08/17 04:46:57;;;;;;;;;;;18.80;99.90;;;;;;5045500;28;19925;-82
2022/08/17 04:49:24;;;;;;;;;;;18.80;99.90;;;;;;5053286;28;19924;-83
2022/08/17 04:51:50;;;;;;;;;;;18.90;99.90;;;;;;5051361;28;19928;-84
2022/08/17 04:54:19;;;;;;;;;;;18.90;99.90;;;;;;5054565;28;19925;-83
2022/08/17 04:56:46;;;;;;;;;;;19.00;99.90;;;;;;5052098;28;19925;-83
2022/08/17 04:59:14;;;;;;;;;;;19.10;99.90;;;;;;5053510;28;19925;-82
2022/08/17 05:01:42;;;;;;;;;;;19.00;99.90;;;;;;5055801;28;19963;-85
2022/08/17 05:04:16;;;;;;;;;;;19.20;99.90;;;;;;5057649;28;20365;-86
2022/08/17 05:06:44;;;;;;;;;;;19.20;99.90;;;;;;5054154;28;19975;-86
2022/08/17 05:09:11;;;;;;;;;;;19.30;99.90;;;;;;5053325;28;19924;-86
2022/08/17 05:11:38;;;;;;;;;;;19.40;99.90;;;;;;5042544;28;19929;-86
2022/08/17 05:14:05;;;;;;;;;;;19.40;99.90;;;;;;5043161;28;19967;-86
2022/08/17 05:16:31;;;;;;;;;;;19.50;99.90;;;;;;5043680;28;19932;-86
2022/08/17 05:18:58;;;;;;;;;;;19.60;99.90;;;;;;5052355;28;19958;-86
2022/08/17 05:21:27;;;;;;;;;;;19.90;99.90;;;;;;5042021;28;19931;-87
2022/08/17 05:23:57;;;;;;;;;;;19.70;99.90;;;;;;5049969;28;20301;-86
2022/08/17 05:26:25;;;;;;;;;;;19.80;99.90;;;;;;5048192;28;19924;-87
2022/08/17 05:28:52;;;;;;;;;;;20.00;99.90;;;;;;5042441;28;20333;-87
2022/08/17 05:31:18;;;;;;;;;;;20.00;99.90;;;;;;5036076;28;19936;-87
2022/08/17 05:33:45;;;;;;;;;;;20.10;99.90;;;;;;5040132;28;19932;-87
2022/08/17 05:36:13;;;;;;;;;;;20.20;99.90;;;;;;5038729;28;20442;-87
2022/08/17 05:38:41;;;;;;;;;;;20.30;99.90;;;;;;5049433;28;19921;-87
2022/08/17 05:41:10;;;;;;;;;;;20.40;99.90;;;;;;5043926;28;19963;-88
2022/08/17 05:43:37;;;;;;;;;;;20.60;99.90;;;;;;5046092;28;19925;-87
2022/08/17 05:46:05;;;;;;;;;;;22.60;99.90;;;;;;5051107;28;19950;-88
2022/08/17 05:48:35;;;;;;;;;;;20.70;99.90;;;;;;5054516;28;20094;-86
2022/08/17 05:51:05;;;;;;;;;;;20.80;99.90;;;;;;5048969;28;19924;-88
2022/08/17 05:53:37;;;;;;;;;;;20.80;99.90;;;;;;5038921;28;19925;-88
2022/08/17 05:56:10;;;;;;;;;;;20.90;99.90;;;;;;5046256;28;20374;-87
2022/08/17 05:58:42;;;;;;;;;;;21.10;99.90;;;;;;5047937;28;19951;-87
2022/08/17 06:01:13;;;;;;;;;;;21.20;99.90;;;;;;5047551;28;19931;-87
2022/08/17 06:03:42;;;;;;;;;;;21.30;99.90;;;;;;5052138;28;19932;-87
2022/08/17 06:06:16;;;;;;;;;;;21.50;99.90;;;;;;5052729;28;20019;-87
2022/08/17 06:08:48;;;;;;;;;;;21.60;99.90;;;;;;5049609;28;19925;-87
2022/08/17 06:11:20;;;;;;;;;;;21.70;99.90;;;;;;5045093;28;19925;-86
2022/08/17 06:13:55;;;;;;;;;;;21.80;99.90;;;;;;5054902;28;19939;-86
2022/08/17 06:16:25;;;;;;;;;;;21.90;99.90;;;;;;5042339;28;19930;-86
2022/08/17 06:18:55;;;;;;;;;;;22.30;99.90;;;;;;5040389;28;19921;-86
2022/08/17 06:21:23;;;;;;;;;;;22.30;99.90;;;;;;5049523;28;20453;-86
2022/08/17 06:23:52;;;;;;;;;;;22.90;99.90;;;;;;5051962;28;19928;-86
2022/08/17 06:26:22;;;;;;;;;;;22.80;99.90;;;;;;5057365;28;19924;-85
2022/08/17 06:28:51;;;;;;;;;;;23.10;99.90;;;;;;5050288;28;19931;-86
2022/08/17 06:31:21;;;;;;;;;;;23.60;99.90;;;;;;5046004;28;19924;-85
2022/08/17 06:33:48;;;;;;;;;;;23.70;99.90;;;;;;5043343;28;19925;-86
2022/08/17 06:36:27;;;;;;;;;;;24.00;99.90;;;;;;5053358;28;19921;-86
2022/08/17 06:38:59;;;;;;;;;;;24.00;99.90;;;;;;5053540;28;19925;-86
2022/08/17 06:41:31;;;;;;;;;;;24.20;99.90;;;;;;5060646;28;19932;-86
2022/08/17 06:44:07;;;;;;;;;;;24.80;99.90;;;;;;5051688;28;19921;-86
2022/08/17 06:46:35;;;;;;;;;;;24.50;99.90;;;;;;5037518;28;20294;-86
2022/08/17 06:49:11;;;;;;;;;;;24.80;99.90;;;;;;5042460;28;19987;-86
2022/08/17 06:51:39;;;;;;;;;;;25.10;99.90;;;;;;5041244;28;20537;-85
2022/08/17 06:54:07;;;;;;;;;;;25.40;99.90;;;;;;5064936;28;19925;-85
2022/08/17 06:56:41;;;;;;;;;;;25.50;99.90;;;;;;5045086;28;19979;-85
2022/08/17 07:02:11;;;;;;;;;;;25.70;99.90;;;;;;5044258;28;20518;-87
2022/08/17 07:08:02;;;;;;;;;;;26.00;99.90;;;;;;5063503;28;20503;-86
2022/08/17 07:10:34;;;;;;;;;;;26.00;99.90;;;;;;5051014;28;20274;-85
2022/08/17 07:13:10;;;;;;;;;;;26.10;99.90;;;;;;5061607;28;20008;-86
2022/08/17 07:15:40;;;;;;;;;;;26.10;99.90;;;;;;5055451;28;19940;-86
2022/08/17 07:18:07;;;;;;;;;;;25.50;99.90;;;;;;5049925;28;20024;-86
2022/08/17 07:20:38;;;;;;;;;;;26.10;99.90;;;;;;5039816;28;19971;-86
2022/08/17 07:23:08;;;;;;;;;;;26.10;99.90;;;;;;5041566;28;19930;-86
2022/08/17 07:25:35;;;;;;;;;;;26.20;99.90;;;;;;5045946;28;20219;-85
2022/08/17 07:28:04;;;;;;;;;;;26.20;99.90;;;;;;5050274;28;19924;-86
2022/08/17 07:30:36;;;;;;;;;;;26.30;99.90;;;;;;5044699;28;19960;-86
2022/08/17 07:33:07;;;;;;;;;;;28.00;99.90;;;;;;5054137;28;20023;-87
2022/08/17 07:35:38;;;;;;;;;;;26.70;99.90;;;;;;5064795;28;19943;-86
2022/08/17 07:38:10;;;;;;;;;;;26.70;99.90;;;;;;5064715;28;19950;-86
2022/08/17 07:40:38;;;;;;;;;;;26.80;99.90;;;;;;5043319;28;20019;-87
2022/08/17 07:43:23;;;;;;;;;;;26.90;99.90;;;;;;5050936;28;19948;-87
2022/08/17 07:48:41;;;;;;;;;;;26.90;99.90;;;;;;5042151;28;20267;-86
2022/08/17 07:51:15;;;;;;;;;;;26.90;99.90;;;;;;5044883;28;19970;-86
2022/08/17 07:53:41;;;;;;;;;;;27.00;99.90;;;;;;5048364;28;19924;-87
2022/08/17 07:56:08;;;;;;;;;;;27.00;99.90;;;;;;5057569;28;20112;-86
2022/08/17 07:58:36;;;;;;;;;;;26.90;99.90;;;;;;5058630;28;19925;-86
2022/08/17 08:01:07;;;;;;;;;;;27.40;99.90;;;;;;5052561;28;19929;-87
2022/08/17 08:03:40;;;;;;;;;;;27.60;99.90;;;;;;5052491;28;19925;-87
2022/08/17 08:06:19;;;;;;;;;;;27.60;99.90;;;;;;5052682;28;19928;-87
2022/08/17 08:08:50;;;;;;;;;;;27.80;99.90;;;;;;5043931;28;20555;-87
2022/08/17 08:11:28;;;;;;;;;;;28.00;99.90;;;;;;5042483;28;19920;-87
2022/08/17 08:13:55;;;;;;;;;;;28.20;99.90;;;;;;5045937;28;19925;-87
2022/08/17 08:16:25;;;;;;;;;;;28.30;99.90;;;;;;5050796;28;19928;-86
2022/08/17 08:18:54;;;;;;;;;;;28.30;99.90;;;;;;5059502;28;19986;-87
2022/08/17 08:21:27;;;;;;;;;;;28.30;99.90;;;;;;5054257;28;19924;-87
2022/08/17 08:23:58;;;;;;;;;;;28.10;99.90;;;;;;5062399;28;19925;-87
2022/08/17 08:26:30;;;;;;;;;;;27.90;99.90;;;;;;5052804;28;19927;-86
2022/08/17 08:29:02;;;;;;;;;;;27.80;99.90;;;;;;5050887;28;20008;-85
2022/08/17 08:31:40;;;;;;;;;;;27.80;99.90;;;;;;5047918;28;19936;-86
2022/08/17 08:34:11;;;;;;;;;;;27.60;99.90;;;;;;5045389;28;19956;-86
2022/08/17 08:36:46;;;;;;;;;;;27.60;99.90;;;;;;5050162;28;19975;-87
2022/08/17 08:39:18;;;;;;;;;;;27.70;99.90;;;;;;5052009;28;19932;-87
2022/08/17 08:41:57;;;;;;;;;;;27.90;99.90;;;;;;5045680;28;19960;-88
2022/08/17 08:44:35;;;;;;;;;;;28.50;99.90;;;;;;5046020;28;20068;-87
2022/08/17 08:47:26;;;;;;;;;;;28.70;99.90;;;;;;5050031;28;19925;-87
2022/08/17 08:50:08;;;;;;;;;;;29.00;99.90;;;;;;5040941;28;20065;-87
2022/08/17 08:52:44;;;;;;;;;;;29.20;99.90;;;;;;5042898;28;20397;-87
2022/08/17 08:55:18;;;;;;;;;;;29.20;99.90;;;;;;5048685;28;19921;-87
2022/08/17 08:57:49;;;;;;;;;;;29.20;99.90;;;;;;5051909;28;19947;-88
2022/08/17 09:00:20;;;;;;;;;;;29.10;99.90;;;;;;5058414;28;19921;-86
2022/08/17 09:03:05;;;;;;;;;;;28.90;99.90;;;;;;5044041;28;19962;-87
2022/08/17 09:05:38;;;;;;;;;;;28.70;99.90;;;;;;5048849;28;19932;-88
2022/08/17 09:08:18;;;;;;;;;;;28.30;99.90;;;;;;5038468;28;19931;-87
2022/08/17 09:10:50;;;;;;;;;;;28.30;99.90;;;;;;5041557;28;19925;-87
2022/08/17 09:13:21;;;;;;;;;;;27.90;99.90;;;;;;5047480;28;19931;-87
2022/08/17 09:15:51;;;;;;;;;;;27.80;99.90;;;;;;5042704;28;19951;-87
2022/08/17 09:18:23;;;;;;;;;;;27.40;99.90;;;;;;5036400;28;19924;-87
2022/08/17 09:20:56;;;;;;;;;;;27.40;99.90;;;;;;5049752;28;19928;-87
2022/08/17 09:23:31;;;;;;;;;;;27.30;99.90;;;;;;5051688;28;19920;-87
2022/08/17 09:26:01;;;;;;;;;;;27.30;99.90;;;;;;5049323;28;20333;-87
2022/08/17 09:28:31;;;;;;;;;;;27.30;99.90;;;;;;5048719;28;19956;-87
2022/08/17 09:31:03;;;;;;;;;;;27.20;99.90;;;;;;5047820;28;19920;-87
2022/08/17 09:33:42;;;;;;;;;;;27.10;99.90;;;;;;5048841;28;19927;-87
2022/08/17 09:36:12;;;;;;;;;;;27.10;99.90;;;;;;5042231;28;19921;-86
2022/08/17 09:38:43;;;;;;;;;;;27.20;99.90;;;;;;5046013;28;19924;-87
2022/08/17 09:41:14;;;;;;;;;;;27.10;99.90;;;;;;5046239;28;19929;-87
2022/08/17 09:43:44;;;;;;;;;;;27.10;99.90;;;;;;5045430;28;20015;-87
2022/08/17 09:46:19;;;;;;;;;;;27.00;99.90;;;;;;5040739;28;19928;-88
2022/08/17 09:48:54;;;;;;;;;;;27.00;99.90;;;;;;5043727;28;19920;-88
2022/08/17 09:51:24;;;;;;;;;;;26.90;99.90;;;;;;5048138;28;19986;-88
2022/08/17 09:53:51;;;;;;;;;;;26.80;99.90;;;;;;5049682;28;19980;-88
2022/08/17 09:56:26;;;;;;;;;;;26.70;99.90;;;;;;5051223;28;19921;-88
2022/08/17 09:59:02;;;;;;;;;;;26.60;99.90;;;;;;5050050;28;19924;-88
2022/08/17 10:01:35;;;;;;;;;;;26.50;99.90;;;;;;5050534;28;19936;-88
2022/08/17 10:04:16;;;;;;;;;;;26.30;99.90;;;;;;5050802;28;19982;-87
2022/08/17 10:06:47;;;;;;;;;;;26.30;99.90;;;;;;5043727;28;19963;-87
2022/08/17 10:09:16;;;;;;;;;;;26.20;99.90;;;;;;5046187;28;20191;-88
2022/08/17 10:14:42;;;;;;;;;;;26.10;99.90;;;;;;5063937;28;19980;-89
2022/08/17 10:17:38;;;;;;;;;;;25.90;99.90;;;;;;5072882;28;19919;-87
2022/08/17 10:20:10;;;;;;;;;;;25.90;99.90;;;;;;5070074;28;19944;-87
2022/08/17 10:28:17;;;;;;;;;;;25.60;99.90;;;;;;5068441;28;19916;-87
2022/08/17 10:30:46;;;;;;;;;;;25.50;99.90;;;;;;5067207;28;20019;-87
2022/08/17 10:33:16;;;;;;;;;;;25.40;99.90;;;;;;5068102;28;19931;-87
2022/08/17 10:35:46;;;;;;;;;;;25.40;99.90;;;;;;5070868;28;19947;-87
2022/08/17 10:38:31;;;;;;;;;;;25.30;99.90;;;;;;5069044;28;19931;-87
2022/08/17 10:41:00;;;;;;;;;;;25.30;99.90;;;;;;5070044;28;19943;-89
2022/08/17 10:43:33;;;;;;;;;;;25.20;99.90;;;;;;5069576;28;19909;-89
2022/08/17 10:46:03;;;;;;;;;;;25.10;99.90;;;;;;5067973;28;19909;-88
2022/08/17 10:48:32;;;;;;;;;;;25.10;99.90;;;;;;5075038;28;19919;-88
2022/08/17 10:51:01;;;;;;;;;;;25.00;99.90;;;;;;5088662;28;19925;-88
2022/08/17 10:53:48;;;;;;;;;;;24.90;99.90;;;;;;5062263;28;19915;-88
2022/08/17 10:56:20;;;;;;;;;;;24.90;99.90;;;;;;5070226;28;19909;-88
2022/08/17 10:58:49;;;;;;;;;;;24.90;99.90;;;;;;5067016;28;19932;-88
2022/08/17 11:01:16;;;;;;;;;;;24.70;99.90;;;;;;5071461;28;19932;-88
2022/08/17 11:03:53;;;;;;;;;;;24.70;99.90;;;;;;5061650;28;19976;-88
2022/08/17 11:06:29;;;;;;;;;;;24.50;99.90;;;;;;5068519;28;19932;-89
2022/08/17 11:09:10;;;;;;;;;;;24.40;99.90;;;;;;5060722;28;19924;-88
2022/08/17 11:11:44;;;;;;;;;;;24.30;99.90;;;;;;5064628;28;19920;-88
2022/08/17 11:14:27;;;;;;;;;;;24.30;99.90;;;;;;5074965;28;19931;-89
2022/08/17 11:17:04;;;;;;;;;;;24.20;99.90;;;;;;5062219;28;19919;-88
2022/08/17 11:19:39;;;;;;;;;;;24.20;99.90;;;;;;5059759;28;19931;-88
2022/08/17 11:22:16;;;;;;;;;;;24.20;99.90;;;;;;5061547;28;19919;-88
2022/08/17 11:24:46;;;;;;;;;;;24.20;99.90;;;;;;5054519;28;19931;-88
2022/08/17 11:27:22;;;;;;;;;;;24.20;99.90;;;;;;5054010;28;19931;-87
2022/08/17 11:29:50;;;;;;;;;;;24.20;99.90;;;;;;5050173;28;19940;-87
2022/08/17 11:32:36;;;;;;;;;;;24.10;99.90;;;;;;5052384;28;19932;-88
2022/08/17 11:35:10;;;;;;;;;;;24.10;99.90;;;;;;5050348;28;19963;-87
2022/08/17 11:37:46;;;;;;;;;;;24.10;99.90;;;;;;5053084;28;19925;-87
2022/08/17 11:40:31;;;;;;;;;;;24.10;99.90;;;;;;5052424;28;19935;-87
2022/08/17 11:43:04;;;;;;;;;;;24.40;99.90;;;;;;5047600;28;19921;-87
2022/08/17 11:45:37;;;;;;;;;;;24.40;99.90;;;;;;5031037;28;19932;-88
2022/08/17 11:53:59;;;;;;;;;;;25.70;99.90;;;;;;5041257;28;20327;-88
2022/08/17 11:56:32;;;;;;;;;;;26.80;99.90;;;;;;5037665;28;19932;-88
2022/08/17 11:59:00;;;;;;;;;;;26.90;99.90;;;;;;5049065;28;19927;-88
2022/08/17 12:01:46;;;;;;;;;;;27.30;99.90;;;;;;5050856;28;20182;-87
2022/08/17 12:04:19;;;;;;;;;;;27.90;99.90;;;;;;5051381;28;19924;-87
2022/08/17 12:06:48;;;;;;;;;;;27.90;99.90;;;;;;5052501;28;19924;-88
2022/08/17 12:09:17;;;;;;;;;;;28.30;99.90;;;;;;5054290;28;20007;-87
2022/08/17 12:11:49;;;;;;;;;;;28.50;99.90;;;;;;5057455;28;19921;-87
2022/08/17 12:14:21;;;;;;;;;;;28.60;99.90;;;;;;5044237;28;19956;-87
2022/08/17 12:16:57;;;;;;;;;;;28.60;99.90;;;;;;5038299;28;19929;-87
2022/08/17 12:19:26;;;;;;;;;;;28.50;99.90;;;;;;5050573;28;19928;-87
2022/08/17 12:21:58;;;;;;;;;;;28.50;99.90;;;;;;5049932;28;20029;-87
2022/08/17 12:24:32;;;;;;;;;;;28.50;99.90;;;;;;5051833;28;19921;-87
2022/08/17 12:27:01;;;;;;;;;;;28.60;99.90;;;;;;5042960;28;19925;-88
2022/08/17 12:29:32;;;;;;;;;;;28.70;99.90;;;;;;5049045;28;19939;-88
2022/08/17 12:32:02;;;;;;;;;;;28.70;99.90;;;;;;5047299;28;19975;-87
2022/08/17 12:34:34;;;;;;;;;;;28.80;99.90;;;;;;5048958;28;19929;-87
2022/08/17 12:37:02;;;;;;;;;;;28.80;99.90;;;;;;5061982;28;20020;-88
2022/08/17 12:39:30;;;;;;;;;;;28.80;99.90;;;;;;5044122;28;19928;-88
2022/08/17 12:42:01;;;;;;;;;;;28.90;99.90;;;;;;5045231;28;19925;-88
2022/08/17 12:44:30;;;;;;;;;;;28.90;99.90;;;;;;5048217;28;19975;-87
2022/08/17 12:47:03;;;;;;;;;;;28.80;99.90;;;;;;5056011;28;19913;-88
2022/08/17 12:49:31;;;;;;;;;;;29.00;99.90;;;;;;5053951;28;19932;-88
2022/08/17 12:52:06;;;;;;;;;;;29.10;99.90;;;;;;5052304;28;19998;-88
2022/08/17 12:54:41;;;;;;;;;;;29.20;99.90;;;;;;5046822;28;19935;-88
2022/08/17 12:57:12;;;;;;;;;;;29.20;99.90;;;;;;5044899;28;19929;-88
2022/08/17 12:59:40;;;;;;;;;;;29.20;99.90;;;;;;5043054;28;19979;-88
2022/08/17 13:02:27;;;;;;;;;;;29.40;99.90;;;;;;5047087;28;19921;-89
2022/08/17 13:05:17;;;;;;;;;;;29.70;99.90;;;;;;5076380;28;19921;-89
2022/08/17 13:11:41;;;;;;;;;;;30.00;99.90;;;;;;4969282;28;19930;-89
2022/08/17 13:14:10;;;;;;;;;;;29.80;99.90;;;;;;4990334;28;19925;-89
2022/08/17 13:16:52;;;;;;;;;;;29.80;99.90;;;;;;5046295;28;20008;-88
2022/08/17 13:19:24;;;;;;;;;;;29.50;99.90;;;;;;5055499;28;19925;-89
2022/08/17 13:21:54;;;;;;;;;;;;;;;;;;5047720;28;19945;-92
2022/08/17 13:24:23;;;;;;;;;;;29.40;99.90;;;;;;5049744;28;19933;-89
2022/08/17 13:26:53;;;;;;;;;;;29.40;99.90;;;;;;5050058;28;19977;-89
2022/08/17 13:29:23;;;;;;;;;;;29.60;99.90;;;;;;5055322;28;20409;-88
2022/08/17 13:31:57;;;;;;;;;;;29.90;99.90;;;;;;5057381;28;20293;-88
2022/08/17 13:34:36;;;;;;;;;;;30.10;99.90;;;;;;5056585;28;19932;-90
2022/08/17 13:37:18;;;;;;;;;;;30.10;99.90;;;;;;5050709;28;19960;-90
2022/08/17 13:39:46;;;;;;;;;;;30.00;99.90;;;;;;5046443;28;19920;-87
2022/08/17 13:42:28;;;;;;;;;;;30.10;99.90;;;;;;5060838;28;19921;-87
2022/08/17 13:44:58;;;;;;;;;;;29.80;99.90;;;;;;5066953;28;19944;-89
2022/08/17 13:47:25;;;;;;;;;;;29.80;99.90;;;;;;5060184;28;19927;-89
2022/08/17 13:49:54;;;;;;;;;;;29.60;99.90;;;;;;5052623;28;19921;-88
2022/08/17 13:52:35;;;;;;;;;;;29.10;99.90;;;;;;5063859;28;19921;-89
2022/08/17 13:55:07;;;;;;;;;;;28.90;99.90;;;;;;5055926;28;19956;-87
2022/08/17 13:57:35;;;;;;;;;;;28.90;99.90;;;;;;5058374;28;20255;-86
2022/08/17 14:00:09;;;;;;;;;;;28.70;99.90;;;;;;5051194;28;19955;-87
2022/08/17 14:02:36;;;;;;;;;;;28.40;99.90;;;;;;5043689;28;19927;-89
2022/08/17 14:05:04;;;;;;;;;;;28.10;99.90;;;;;;5049568;28;19956;-87
2022/08/17 14:07:33;;;;;;;;;;;27.80;99.90;;;;;;5045156;28;20627;-88
2022/08/17 14:10:01;;;;;;;;;;;27.40;99.90;;;;;;5049160;28;19986;-89
2022/08/17 14:12:29;;;;;;;;;;;27.10;99.90;;;;;;5044779;28;19924;-89
2022/08/17 14:14:57;;;;;;;;;;;27.10;99.90;;;;;;5051319;28;19932;-88
2022/08/17 14:17:27;;;;;;;;;;;27.20;99.90;;;;;;5051265;28;19929;-86
2022/08/17 14:19:54;;;;;;;;;;;27.50;99.90;;;;;;5040565;28;19936;-86
2022/08/17 14:22:23;;;;;;;;;;;27.60;99.90;;;;;;5044053;28;19928;-87
2022/08/17 14:24:51;;;;;;;;;;;27.50;99.90;;;;;;5041042;28;19929;-89
2022/08/17 14:27:20;;;;;;;;;;;27.30;99.90;;;;;;5043149;28;19952;-88
2022/08/17 14:29:47;;;;;;;;;;;25.80;99.90;;;;;;5047383;28;19971;-86
2022/08/17 14:32:18;;;;;;;;;;;26.90;99.90;;;;;;5042916;28;19924;-86
2022/08/17 14:34:48;;;;;;;;;;;27.20;99.90;;;;;;5050737;28;19928;-89
2022/08/17 14:37:15;;;;;;;;;;;26.50;99.90;;;;;;5053345;28;19959;-87
2022/08/17 14:39:42;;;;;;;;;;;26.40;99.90;;;;;;5047490;28;19942;-88
2022/08/17 14:42:10;;;;;;;;;;;26.60;99.90;;;;;;5046146;28;19925;-87
2022/08/17 14:44:37;;;;;;;;;;;26.80;99.90;;;;;;5056535;28;19936;-87
2022/08/17 14:47:04;;;;;;;;;;;27.00;99.90;;;;;;5041733;28;19933;-88
2022/08/17 14:49:34;;;;;;;;;;;27.40;99.90;;;;;;5053907;28;20694;-91
2022/08/17 14:52:02;;;;;;;;;;;28.20;99.90;;;;;;5060658;28;19920;-90
2022/08/17 14:54:31;;;;;;;;;;;28.50;99.90;;;;;;5060690;28;20030;-94
2022/08/17 14:57:02;;;;;;;;;;;28.50;99.90;;;;;;5068730;28;19908;-93
2022/08/17 15:02:47;;;;;;;;;;;28.60;99.90;;;;;;5077021;28;20039;-94
2022/08/17 15:05:14;;;;;;;;;;;28.60;99.90;;;;;;5076859;28;19927;-88
2022/08/17 15:07:43;;;;;;;;;;;28.50;99.90;;;;;;5058471;28;19921;-89
2022/08/17 15:10:12;;;;;;;;;;;28.50;99.90;;;;;;5060997;28;19929;-88
2022/08/17 15:12:39;;;;;;;;;;;28.40;99.90;;;;;;5058680;28;20371;-90
2022/08/17 15:15:07;;;;;;;;;;;28.40;99.90;;;;;;5064967;28;19921;-87
2022/08/17 15:17:34;;;;;;;;;;;;;;;;;;5054644;28;19932;-88
2022/08/17 15:20:01;;;;;;;;;;;28.40;99.90;;;;;;5054719;28;19921;-91
2022/08/17 15:22:28;;;;;;;;;;;28.40;99.90;;;;;;5056309;28;20350;-91